Little Boston, Washington
Current Conditions -  °F | °C
As of 11:53 PM on Wednesday 17 Dec 2014 (Local Time) from KPAE Reporting Station
Overcast Overcast  
Wind Chill: 40°   Ceiling: 2200
Heat Index: 44°   Visibility: 10mi
Dew Point: 42°   Wind: 7mph
Humidity: 93%   Direction: 160°SSE
Pressure: 29.91"   Gusts: NA
Location:  47.8525°N, 122.568°W
Report Text: KPAE 180753Z 16006KT 10SM OVC022 07/06 A2991 RMK AO2 RAE53 SLP132 P0000 T00670056 400830061
Loading
Personal Weather Stations






























Interactive Weather Map New forecast layout! Learn more

10-Day Weather Forecast

Advertisements
Track Severe Weather on mobile